Terminal Aerodrome Forecast
Issued by NWS

Current Version | Previous Version | Graphics & Text | Print | Product List | Glossary On
Versions: 1 2 3 4 5 6 7 8 9 10 11 12 13 14 15 16 17
000
FTUS41 KILN 260532
TAFLCK
TAF
KLCK 260532Z 2606/2706 09004KT P6SM SCT080 OVC110
     FM261200 15006KT P6SM -SHRA OVC050
      TEMPO 2612/2616 5SM -SHRA
     FM261600 16009KT P6SM -SHRA OVC035
     FM261800 17010KT P6SM -SHRA VCTS OVC035CB
     FM270000 19006KT P6SM -SHRA OVC050
     FM270200 20006KT P6SM OVC070=

USA.gov is the U.S. government's official web portal to all federal, state and local government web resources and services.